Time;durP1;ratioP1;P1;durP2;ratioP2;P2;SDS_P1;SDS_P2;PMS_P1;PMS_P2;Temp;Humidity;BMP_temperature;BMP_pressure;BME280_temperature;BME280_humidity;BME280_pressure;Samples;Min_cycle;Max_cycle;Signal;HPM_P1;HPM_P2
2022/12/25 00:00:54;;;;;;;4.97;4.07;;;8.70;99.90;;;;;;5983281;23;20196;-77
2022/12/25 00:03:23;;;;;;;5.72;4.10;;;8.70;99.90;;;;;;5984152;23;20236;-77
2022/12/25 00:05:51;;;;;;;5.32;4.38;;;8.60;99.90;;;;;;6009394;23;20701;-77
2022/12/25 00:08:18;;;;;;;5.55;4.57;;;8.60;99.90;;;;;;5984579;23;20192;-77
2022/12/25 00:10:45;;;;;;;4.70;4.30;;;8.60;99.90;;;;;;6009270;23;20196;-77
2022/12/25 00:13:12;;;;;;;5.55;4.55;;;8.60;99.90;;;;;;6009981;23;20251;-77
2022/12/25 00:15:40;;;;;;;8.93;4.25;;;8.60;99.90;;;;;;6010124;23;20253;-77
2022/12/25 00:18:08;;;;;;;6.82;4.45;;;8.60;99.90;;;;;;6002806;23;20253;-77
2022/12/25 00:20:36;;;;;;;5.22;4.38;;;8.60;99.90;;;;;;5980268;24;20194;-77
2022/12/25 00:23:03;;;;;;;5.35;4.85;;;8.60;99.90;;;;;;5957379;24;20194;-77
2022/12/25 00:25:31;;;;;;;5.75;4.88;;;8.70;99.90;;;;;;5956990;24;20225;-77
2022/12/25 00:27:58;;;;;;;6.13;4.75;;;8.70;99.90;;;;;;5987976;23;20198;-77
2022/12/25 00:30:25;;;;;;;7.95;5.25;;;8.70;99.90;;;;;;5981733;24;20209;-77
2022/12/25 00:32:52;;;;;;;6.70;5.10;;;8.70;99.90;;;;;;5982893;24;20224;-77
2022/12/25 00:35:20;;;;;;;6.47;4.88;;;8.70;99.90;;;;;;5958402;24;20197;-76
2022/12/25 00:37:48;;;;;;;9.10;6.00;;;8.30;99.90;;;;;;5982621;23;20197;-77
2022/12/25 00:40:16;;;;;;;7.82;5.32;;;8.70;99.90;;;;;;5982807;24;20208;-77
2022/12/25 00:42:43;;;;;;;5.95;5.38;;;8.70;99.90;;;;;;5982253;24;20226;-77
2022/12/25 00:45:11;;;;;;;6.75;5.93;;;8.70;99.90;;;;;;5981774;24;20219;-77
2022/12/25 00:47:39;;;;;;;6.63;5.82;;;8.70;99.90;;;;;;5958339;24;20192;-77
2022/12/25 00:50:08;;;;;;;6.75;6.15;;;8.70;99.90;;;;;;5982695;24;20210;-77
2022/12/25 00:52:34;;;;;;;6.40;5.80;;;8.70;99.90;;;;;;5981709;24;20207;-77
2022/12/25 00:55:04;;;;;;;6.20;5.50;;;8.70;99.90;;;;;;5984451;24;20334;-77
2022/12/25 00:57:31;;;;;;;6.82;6.22;;;8.70;99.90;;;;;;5983089;23;20249;-77
2022/12/25 00:59:59;;;;;;;7.65;6.15;;;8.70;99.90;;;;;;5988182;23;20204;-77
2022/12/25 01:02:26;;;;;;;7.03;6.43;;;8.70;99.90;;;;;;5957766;24;20662;-77
2022/12/25 01:04:55;;;;;;;6.03;5.47;;;8.70;99.90;;;;;;5982744;24;20699;-77
2022/12/25 01:07:24;;;;;;;8.15;6.43;;;8.70;99.90;;;;;;5982557;24;20222;-77
2022/12/25 01:12:39;;;;;;;7.45;6.57;;;8.70;99.90;;;;;;6010538;23;20197;-77
2022/12/25 01:15:09;;;;;;;8.18;7.47;;;8.70;99.90;;;;;;6008682;23;20224;-77
2022/12/25 01:17:36;;;;;;;8.48;7.65;;;8.70;99.90;;;;;;6006645;23;20647;-77
2022/12/25 01:20:04;;;;;;;8.05;7.25;;;8.70;99.90;;;;;;6007145;23;20607;-77
2022/12/25 01:22:32;;;;;;;8.00;7.20;;;8.80;99.90;;;;;;6007507;23;20285;-77
2022/12/25 01:24:59;;;;;;;9.25;7.40;;;8.70;99.90;;;;;;6007945;23;20350;-77
2022/12/25 01:27:27;;;;;;;8.38;7.55;;;8.70;99.90;;;;;;6003376;23;20235;-77
2022/12/25 01:29:55;;;;;;;9.82;7.40;;;8.70;99.90;;;;;;5979481;24;20201;-77
2022/12/25 01:32:23;;;;;;;8.80;7.95;;;8.70;99.90;;;;;;5980142;24;20201;-77
2022/12/25 01:34:51;;;;;;;10.65;8.80;;;8.60;99.90;;;;;;5997504;23;20496;-77
2022/12/25 01:37:18;;;;;;;9.40;8.60;;;8.60;99.90;;;;;;6007132;23;20221;-77
2022/12/25 01:39:45;;;;;;;9.52;8.63;;;8.60;99.90;;;;;;6008159;23;20243;-77
2022/12/25 01:42:17;;;;;;;10.35;8.10;;;8.60;99.90;;;;;;5977389;24;20733;-77
2022/12/25 01:45:21;;;;;;;9.23;8.40;;;8.60;99.90;;;;;;5981081;24;20197;-77
2022/12/25 01:47:50;;;;;;;8.40;7.60;;;8.70;99.90;;;;;;5980743;24;20522;-77
2022/12/25 01:50:18;;;;;;;9.95;8.40;;;8.60;99.90;;;;;;5980901;24;20700;-77
2022/12/25 01:52:46;;;;;;;8.70;7.65;;;8.60;99.90;;;;;;5981397;24;20441;-77
2022/12/25 01:55:13;;;;;;;8.18;7.47;;;8.60;99.90;;;;;;5981030;24;20203;-77
2022/12/25 01:57:43;;;;;;;9.77;7.15;;;8.60;99.90;;;;;;5981177;24;20197;-77
2022/12/25 02:00:12;;;;;;;7.25;6.55;;;8.60;99.90;;;;;;5980523;24;20207;-77
2022/12/25 02:02:41;;;;;;;6.82;6.15;;;8.60;99.90;;;;;;5980157;24;20602;-77
2022/12/25 02:05:17;;;;;;;7.07;6.40;;;8.60;99.90;;;;;;5979402;24;20268;-77
2022/12/25 02:07:47;;;;;;;6.38;5.88;;;8.60;99.90;;;;;;6008510;23;20197;-77
2022/12/25 02:10:14;;;;;;;5.75;5.30;;;8.70;99.90;;;;;;5983865;23;20275;-77
2022/12/25 02:12:43;;;;;;;6.50;5.90;;;8.70;99.90;;;;;;6008587;23;20272;-77
2022/12/25 02:15:13;;;;;;;6.30;5.70;;;8.70;99.90;;;;;;5990245;23;20194;-76
2022/12/25 02:17:46;;;;;;;5.88;5.25;;;8.70;99.90;;;;;;5980642;24;20183;-77
2022/12/25 02:20:36;;;;;;;6.43;5.38;;;8.80;99.90;;;;;;5980863;24;20273;-77
2022/12/25 02:23:30;;;;;;;7.20;5.30;;;8.90;99.90;;;;;;5991791;23;20231;-77
2022/12/25 02:26:14;;;;;;;5.45;4.95;;;8.70;99.90;;;;;;5984298;23;20615;-77
2022/12/25 02:28:51;;;;;;;4.45;3.92;;;8.70;99.90;;;;;;6008846;23;20675;-77
2022/12/25 02:31:22;;;;;;;5.10;4.60;;;8.70;99.90;;;;;;6009118;23;20276;-77
2022/12/25 02:34:05;;;;;;;5.88;4.97;;;8.70;99.90;;;;;;6008797;23;20713;-77
2022/12/25 02:36:38;;;;;;;7.40;5.78;;;8.70;99.90;;;;;;6008899;23;20252;-77
2022/12/25 02:42:02;;;;;;;6.68;5.85;;;8.80;99.90;;;;;;5981022;24;20193;-77
2022/12/25 03:07:01;;;;;;;7.43;6.82;;;8.70;99.90;;;;;;5978015;24;20292;-77
2022/12/25 03:12:29;;;;;;;8.43;6.97;;;8.70;99.90;;;;;;6005219;23;20607;-77
2022/12/25 03:17:43;;;;;;;9.35;8.23;;;8.50;99.90;;;;;;6005808;23;20280;-77
2022/12/25 03:28:26;;;;;;;9.88;9.07;;;8.50;99.90;;;;;;5978333;23;20296;-77
2022/12/25 03:31:11;;;;;;;10.75;9.68;;;8.50;99.90;;;;;;5951746;24;20683;-77
2022/12/25 03:35:21;;;;;;;10.80;8.40;;;8.50;99.90;;;;;;5952145;24;20224;-77
2022/12/25 03:36:47;;;;;;;9.88;8.88;;;8.40;99.90;;;;;;6001287;23;20202;-77
2022/12/25 04:37:40;;;;;;;14.38;12.88;;;8.30;99.90;;;;;;6006695;23;20187;-77
2022/12/25 04:40:11;;;;;;;11.98;10.90;;;8.30;99.90;;;;;;6002192;23;20193;-77
2022/12/25 04:42:37;;;;;;;11.68;10.52;;;8.30;99.90;;;;;;5977481;24;20217;-77
2022/12/25 04:45:05;;;;;;;11.75;10.55;;;8.30;99.90;;;;;;5977962;24;20555;-77
2022/12/25 04:47:33;;;;;;;11.73;10.68;;;8.30;99.90;;;;;;5978126;24;20280;-77
2022/12/25 04:50:00;;;;;;;11.48;10.27;;;8.30;99.90;;;;;;6001296;23;20204;-77
2022/12/25 04:52:27;;;;;;;11.85;10.65;;;8.30;99.90;;;;;;6005948;23;20196;-77
2022/12/25 04:54:54;;;;;;;11.68;10.48;;;8.30;99.90;;;;;;5981812;23;20235;-77
2022/12/25 04:57:23;;;;;;;10.52;9.63;;;8.30;99.90;;;;;;6006152;23;20188;-77
2022/12/25 04:59:50;;;;;;;11.38;9.77;;;8.30;99.90;;;;;;6005582;23;20246;-77
2022/12/25 05:02:17;;;;;;;14.13;10.98;;;8.30;99.90;;;;;;6005581;23;20286;-77
2022/12/25 05:04:44;;;;;;;12.57;11.30;;;8.30;99.90;;;;;;6000802;23;20203;-77
2022/12/25 05:07:11;;;;;;;14.07;11.80;;;8.40;99.90;;;;;;5977626;24;20268;-77
2022/12/25 05:09:40;;;;;;;10.93;9.93;;;8.30;99.90;;;;;;5977980;24;20198;-77
2022/12/25 05:12:07;;;;;;;13.30;12.00;;;8.30;99.90;;;;;;5977587;24;20192;-77
2022/12/25 05:14:36;;;;;;;11.82;10.82;;;8.30;99.90;;;;;;5979265;24;20200;-77
2022/12/25 05:17:03;;;;;;;11.25;10.25;;;8.30;99.90;;;;;;5979269;24;20725;-77
2022/12/25 05:19:30;;;;;;;11.60;10.50;;;8.30;99.90;;;;;;5978902;24;20548;-77
2022/12/25 05:21:57;;;;;;;11.00;10.02;;;8.30;99.90;;;;;;5972460;23;20193;-77
2022/12/25 05:24:27;;;;;;;10.23;9.35;;;8.30;99.90;;;;;;6007343;23;20256;-77
2022/12/25 05:26:54;;;;;;;10.15;9.25;;;8.30;99.90;;;;;;5982370;23;20204;-77
2022/12/25 05:29:21;;;;;;;10.38;9.38;;;8.30;99.90;;;;;;5987524;23;20251;-77
2022/12/25 05:31:50;;;;;;;10.00;9.00;;;8.30;99.90;;;;;;5954289;24;20227;-77
2022/12/25 05:34:17;;;;;;;10.27;9.35;;;8.30;99.90;;;;;;5979700;24;20192;-77
2022/12/25 05:36:44;;;;;;;11.48;9.27;;;8.30;99.90;;;;;;5932778;23;20449;-77
2022/12/25 05:39:12;;;;;;;9.60;8.65;;;8.30;99.90;;;;;;5979304;24;20283;-77
2022/12/25 05:41:39;;;;;;;8.68;7.78;;;8.30;99.90;;;;;;5978109;24;20548;-77
2022/12/25 05:44:05;;;;;;;9.55;8.60;;;8.30;99.90;;;;;;5977704;24;20201;-77
2022/12/25 05:46:33;;;;;;;10.48;7.60;;;8.30;99.90;;;;;;5995659;23;20415;-77
2022/12/25 05:49:01;;;;;;;8.20;7.60;;;8.30;99.90;;;;;;6016790;23;20196;-77
2022/12/25 05:51:29;;;;;;;8.20;7.43;;;8.40;99.90;;;;;;6014482;23;20212;-77
2022/12/25 05:53:56;;;;;;;8.80;7.15;;;8.40;99.90;;;;;;6015701;23;20195;-77
2022/12/25 05:56:23;;;;;;;8.00;7.30;;;8.40;99.90;;;;;;5991402;23;20197;-77
2022/12/25 05:58:51;;;;;;;7.88;7.07;;;8.40;99.90;;;;;;6016106;23;20200;-77
2022/12/25 06:01:20;;;;;;;7.97;7.18;;;8.40;99.90;;;;;;6008363;23;20269;-77
2022/12/25 06:03:47;;;;;;;9.18;7.38;;;8.40;99.90;;;;;;6006418;23;20297;-77
2022/12/25 06:06:16;;;;;;;7.07;6.38;;;8.40;99.90;;;;;;6008022;23;20297;-77
2022/12/25 06:08:44;;;;;;;8.70;7.90;;;8.40;99.90;;;;;;6007185;23;20621;-77
2022/12/25 06:11:13;;;;;;;7.18;6.63;;;8.40;99.90;;;;;;5983106;23;20276;-77
2022/12/25 06:13:41;;;;;;;7.20;6.57;;;8.40;99.90;;;;;;6007541;23;20267;-76
2022/12/25 06:16:10;;;;;;;6.57;6.03;;;8.40;99.90;;;;;;5959410;23;20313;-76
2022/12/25 06:18:38;;;;;;;7.22;6.63;;;8.40;99.90;;;;;;6006657;23;20203;-77
2022/12/25 06:21:10;;;;;;;6.55;6.00;;;8.40;99.90;;;;;;6006460;23;20667;-77
2022/12/25 06:23:39;;;;;;;6.75;6.15;;;8.40;99.90;;;;;;6001968;23;20197;-77
2022/12/25 06:26:09;;;;;;;7.05;6.35;;;8.40;99.90;;;;;;6007639;23;20259;-76
2022/12/25 06:28:36;;;;;;;6.05;5.45;;;8.50;99.90;;;;;;6008511;23;20298;-76
2022/12/25 06:31:07;;;;;;;6.47;5.82;;;8.50;99.90;;;;;;5982512;23;20195;-77
2022/12/25 06:33:35;;;;;;;6.70;5.95;;;8.50;99.90;;;;;;6008640;23;20224;-77
2022/12/25 06:36:06;;;;;;;5.93;5.45;;;8.50;99.90;;;;;;6000044;23;20192;-77
2022/12/25 06:38:33;;;;;;;6.07;5.55;;;8.50;99.90;;;;;;5980050;24;20282;-77
2022/12/25 06:41:05;;;;;;;6.70;6.07;;;8.50;99.90;;;;;;5979505;24;20226;-76
2022/12/25 06:43:32;;;;;;;5.72;5.22;;;8.70;99.90;;;;;;5955251;24;20216;-76
2022/12/25 06:46:03;;;;;;;6.60;6.00;;;8.50;99.90;;;;;;5980590;24;20198;-77
2022/12/25 06:48:32;;;;;;;6.40;5.90;;;8.50;99.90;;;;;;5980768;24;20196;-76
2022/12/25 06:50:59;;;;;;;6.50;5.90;;;8.50;99.90;;;;;;5980348;24;20192;-77
2022/12/25 06:53:26;;;;;;;5.88;5.40;;;8.50;99.90;;;;;;5980495;23;20291;-77
2022/12/25 06:55:53;;;;;;;5.85;5.35;;;8.50;99.90;;;;;;5980562;24;20201;-77
2022/12/25 06:58:21;;;;;;;5.63;5.18;;;8.50;99.90;;;;;;5980353;24;20252;-76
2022/12/25 07:00:49;;;;;;;5.40;4.93;;;8.60;99.90;;;;;;5980193;24;20654;-76
2022/12/25 07:03:21;;;;;;;4.88;4.47;;;8.60;99.90;;;;;;5955879;24;20256;-76
2022/12/25 07:05:48;;;;;;;5.60;5.10;;;8.60;99.90;;;;;;5956673;24;20210;-76
2022/12/25 07:08:15;;;;;;;5.20;4.80;;;8.70;99.90;;;;;;5981557;23;20303;-77
2022/12/25 07:10:42;;;;;;;5.22;4.72;;;8.60;99.90;;;;;;5980866;24;20198;-77
2022/12/25 07:13:09;;;;;;;5.90;5.38;;;8.70;99.90;;;;;;5980879;24;20204;-77
2022/12/25 07:15:38;;;;;;;5.82;5.32;;;8.70;99.90;;;;;;5980494;24;20516;-76
2022/12/25 07:18:05;;;;;;;5.43;4.93;;;8.70;99.90;;;;;;5978314;23;20218;-77
2022/12/25 07:20:32;;;;;;;5.20;4.80;;;8.70;99.90;;;;;;6008407;23;20221;-76
2022/12/25 07:22:59;;;;;;;5.68;5.22;;;8.70;99.90;;;;;;6008668;23;20200;-77
2022/12/25 07:25:26;;;;;;;8.18;4.80;;;8.70;99.90;;;;;;6009065;23;20279;-76
2022/12/25 07:27:53;;;;;;;5.18;4.68;;;8.70;99.90;;;;;;6004421;23;20232;-77
2022/12/25 07:30:20;;;;;;;4.80;4.40;;;8.60;99.90;;;;;;5982906;23;20221;-77
2022/12/25 07:32:50;;;;;;;5.05;4.60;;;8.60;99.90;;;;;;5963745;24;20191;-77
2022/12/25 07:35:17;;;;;;;5.38;4.88;;;8.70;99.90;;;;;;5980960;24;20193;-76
2022/12/25 07:37:44;;;;;;;5.68;5.18;;;8.60;99.90;;;;;;5981297;24;20188;-76
2022/12/25 07:40:12;;;;;;;5.00;4.60;;;8.60;99.90;;;;;;5956366;24;20197;-76
2022/12/25 07:42:39;;;;;;;5.45;5.03;;;8.60;99.90;;;;;;5980750;24;20210;-76
2022/12/25 07:45:07;;;;;;;4.90;4.50;;;8.60;99.90;;;;;;5981646;24;20217;-76
2022/12/25 07:47:35;;;;;;;4.70;4.40;;;8.70;99.90;;;;;;5982061;23;20252;-77
2022/12/25 07:50:04;;;;;;;5.10;4.70;;;8.80;99.90;;;;;;5982055;24;20198;-77
2022/12/25 07:52:31;;;;;;;5.28;4.78;;;8.70;99.90;;;;;;5981708;24;20203;-76
2022/12/25 07:54:58;;;;;;;4.88;4.43;;;8.70;99.90;;;;;;5983206;23;20308;-77
2022/12/25 07:57:26;;;;;;;6.25;5.70;;;8.70;99.90;;;;;;5982847;24;20279;-76
2022/12/25 07:59:53;;;;;;;6.78;5.50;;;8.70;99.90;;;;;;5958148;24;20202;-77
2022/12/25 08:02:26;;;;;;;7.00;6.30;;;8.80;99.90;;;;;;5960787;23;20673;-77
2022/12/25 08:04:54;;;;;;;6.00;5.50;;;8.80;99.90;;;;;;6009651;23;20228;-76
2022/12/25 08:07:22;;;;;;;5.22;4.82;;;8.80;99.90;;;;;;5984761;23;20292;-77
2022/12/25 08:09:50;;;;;;;5.68;5.05;;;8.80;99.90;;;;;;6010409;23;20215;-76
2022/12/25 08:12:17;;;;;;;6.75;6.15;;;8.70;99.90;;;;;;6010067;23;20250;-77
2022/12/25 08:14:44;;;;;;;7.65;6.97;;;8.70;99.90;;;;;;6010170;23;20765;-76
2022/12/25 08:17:11;;;;;;;6.30;5.72;;;8.70;99.90;;;;;;5960074;23;20304;-76
2022/12/25 08:19:39;;;;;;;6.72;6.20;;;8.80;99.90;;;;;;6006824;23;20277;-76
2022/12/25 08:22:06;;;;;;;6.45;5.95;;;8.70;99.90;;;;;;6009575;23;20619;-77
2022/12/25 08:24:35;;;;;;;6.32;5.72;;;8.70;99.90;;;;;;6009756;23;20198;-76
2022/12/25 08:27:04;;;;;;;6.10;5.60;;;8.80;99.90;;;;;;6008833;23;20210;-76
2022/12/25 08:29:32;;;;;;;7.10;5.55;;;8.80;99.90;;;;;;5956305;24;20200;-77
2022/12/25 08:31:59;;;;;;;8.52;6.68;;;8.80;99.90;;;;;;5981478;24;20296;-77
2022/12/25 08:34:27;;;;;;;5.80;5.30;;;8.90;99.90;;;;;;5934059;24;20284;-76
2022/12/25 08:36:54;;;;;;;5.90;5.35;;;9.00;99.90;;;;;;5983388;23;20205;-76
2022/12/25 08:39:23;;;;;;;6.30;4.65;;;9.10;99.90;;;;;;5982902;24;20228;-77
2022/12/25 08:41:52;;;;;;;5.47;4.97;;;9.10;99.90;;;;;;5982102;24;20191;-76
2022/12/25 08:44:19;;;;;;;6.47;5.88;;;9.10;99.90;;;;;;5957287;24;20657;-77
2022/12/25 08:46:46;;;;;;;6.25;5.72;;;9.20;99.90;;;;;;5982509;24;20222;-76
2022/12/25 08:49:15;;;;;;;5.68;5.25;;;9.30;99.90;;;;;;5959605;24;20198;-76
2022/12/25 08:51:44;;;;;;;5.40;4.90;;;9.40;99.90;;;;;;5985873;23;20209;-77
2022/12/25 08:54:11;;;;;;;5.80;5.40;;;9.30;99.90;;;;;;5958677;24;20549;-76
2022/12/25 08:56:38;;;;;;;5.25;4.85;;;9.40;99.90;;;;;;5984172;24;20194;-77
2022/12/25 08:59:07;;;;;;;5.15;4.60;;;9.50;99.90;;;;;;5984666;24;20254;-77
2022/12/25 09:01:34;;;;;;;4.30;4.00;;;9.70;99.90;;;;;;6006381;23;20260;-77
2022/12/25 09:04:01;;;;;;;5.15;4.78;;;10.00;99.90;;;;;;6001742;23;20194;-77
2022/12/25 09:06:28;;;;;;;4.13;3.83;;;10.30;99.90;;;;;;5984979;24;20633;-77
2022/12/25 09:08:56;;;;;;;3.78;3.47;;;10.60;99.90;;;;;;5985544;24;20261;-77
2022/12/25 09:11:23;;;;;;;3.58;3.33;;;11.00;99.90;;;;;;5975450;23;20322;-77
2022/12/25 09:13:50;;;;;;;4.15;3.45;;;11.40;99.90;;;;;;6014226;23;20274;-77
2022/12/25 09:16:20;;;;;;;3.33;3.00;;;11.70;99.90;;;;;;6013337;23;20199;-77
2022/12/25 09:18:48;;;;;;;3.77;3.47;;;12.20;99.90;;;;;;6013054;23;20504;-77
2022/12/25 09:21:16;;;;;;;2.97;2.77;;;12.80;99.90;;;;;;5981725;23;20432;-77
2022/12/25 09:23:44;;;;;;;3.03;2.80;;;13.30;99.90;;;;;;6017247;23;20421;-77
2022/12/25 09:26:15;;;;;;;3.20;2.90;;;13.70;99.90;;;;;;6015194;23;20518;-77
2022/12/25 09:28:43;;;;;;;2.80;2.60;;;14.30;99.90;;;;;;5989341;23;20974;-77
2022/12/25 09:31:10;;;;;;;2.83;2.60;;;14.30;99.90;;;;;;6013864;23;20455;-77
2022/12/25 09:33:39;;;;;;;3.43;2.90;;;14.30;99.90;;;;;;6013073;23;20433;-77
2022/12/25 09:36:08;;;;;;;3.40;3.10;;;14.30;99.90;;;;;;5999054;23;20571;-77
2022/12/25 09:38:35;;;;;;;3.13;2.90;;;14.40;99.90;;;;;;6014025;23;20421;-76
2022/12/25 09:41:15;;;;;;;2.70;2.50;;;14.40;99.90;;;;;;6014567;23;20432;-77
2022/12/25 09:43:48;;;;;;;3.17;2.53;;;14.60;99.90;;;;;;5990387;23;20748;-77
2022/12/25 09:46:19;;;;;;;3.43;3.13;;;14.70;99.90;;;;;;6013910;23;20516;-77
2022/12/25 09:48:57;;;;;;;3.20;3.00;;;14.80;99.90;;;;;;6014403;23;20480;-77
2022/12/25 09:51:27;;;;;;;3.43;2.80;;;14.90;99.90;;;;;;6008718;23;20499;-77
2022/12/25 09:54:00;;;;;;;2.73;2.53;;;15.10;99.90;;;;;;5986814;24;20430;-77
2022/12/25 09:56:28;;;;;;;3.40;3.10;;;15.40;99.90;;;;;;5962803;24;20450;-78
2022/12/25 09:58:55;;;;;;;3.03;2.83;;;15.40;99.90;;;;;;5987500;24;20868;-77
2022/12/25 10:01:33;;;;;;;3.03;2.83;;;15.40;99.90;;;;;;5963102;24;20714;-77
2022/12/25 10:04:29;;;;;;;3.43;2.47;;;15.70;99.90;;;;;;5987893;24;20430;-77
2022/12/25 10:07:12;;;;;;;4.70;2.70;;;16.00;99.90;;;;;;6004703;23;20429;-77
2022/12/25 10:09:57;;;;;;;3.33;2.57;;;16.20;99.90;;;;;;6017282;23;20436;-78
2022/12/25 10:12:45;;;;;;;2.40;2.20;;;16.20;99.90;;;;;;6016579;23;20896;-77
2022/12/25 10:15:31;;;;;;;2.47;2.27;;;16.40;99.90;;;;;;5999825;23;20866;-77
2022/12/25 10:18:13;;;;;;;2.90;2.70;;;16.50;99.90;;;;;;5986884;24;20736;-77
2022/12/25 10:20:50;;;;;;;2.10;2.00;;;16.60;99.90;;;;;;5990182;23;20438;-77
2022/12/25 10:23:22;;;;;;;2.40;2.30;;;16.60;99.90;;;;;;5986666;24;20438;-77
2022/12/25 10:25:52;;;;;;;2.00;1.90;;;16.30;99.90;;;;;;5962436;24;20434;-77
2022/12/25 10:28:26;;;;;;;2.13;1.70;;;16.20;99.90;;;;;;5991381;23;20907;-77
2022/12/25 10:30:58;;;;;;;2.03;1.87;;;16.20;99.90;;;;;;5969312;24;20425;-77
2022/12/25 10:33:25;;;;;;;1.93;1.70;;;16.20;99.90;;;;;;5961806;24;20738;-77
2022/12/25 10:35:53;;;;;;;1.70;1.60;;;16.10;99.90;;;;;;5986529;24;20418;-77
2022/12/25 10:38:21;;;;;;;2.40;2.13;;;15.90;99.90;;;;;;5985008;24;20422;-77
2022/12/25 10:41:03;;;;;;;2.57;2.17;;;15.60;99.90;;;;;;5960506;24;20438;-76
2022/12/25 10:43:36;;;;;;;2.70;2.40;;;15.00;99.90;;;;;;5988135;23;20448;-76
2022/12/25 10:46:10;;;;;;;2.60;2.37;;;14.40;99.90;;;;;;5986431;23;20517;-77
2022/12/25 10:48:42;;;;;;;2.50;2.30;;;14.50;99.90;;;;;;5986009;24;20505;-76
2022/12/25 10:51:10;;;;;;;3.20;2.93;;;14.60;99.90;;;;;;5985537;24;20434;-77
2022/12/25 10:53:40;;;;;;;2.70;2.50;;;14.80;99.90;;;;;;5985746;24;20599;-76
2022/12/25 10:56:15;;;;;;;3.97;2.77;;;14.70;99.90;;;;;;5985479;24;20476;-77
2022/12/25 10:58:43;;;;;;;3.23;2.90;;;14.80;99.90;;;;;;6005059;23;20441;-77
2022/12/25 11:01:11;;;;;;;2.50;2.30;;;15.10;99.90;;;;;;6014594;23;20447;-77
2022/12/25 11:03:39;;;;;;;3.00;2.80;;;15.40;99.90;;;;;;6014760;23;20480;-77
2022/12/25 11:06:21;;;;;;;2.70;2.50;;;15.70;99.90;;;;;;6014317;23;20493;-76
2022/12/25 11:08:53;;;;;;;2.90;2.70;;;16.00;99.90;;;;;;6015210;23;20453;-77
2022/12/25 11:11:21;;;;;;;2.60;2.40;;;16.30;99.90;;;;;;6012294;23;20442;-77
2022/12/25 11:13:51;;;;;;;2.80;2.07;;;16.30;99.90;;;;;;5988793;23;20491;-77
2022/12/25 11:16:28;;;;;;;2.00;1.90;;;16.10;99.90;;;;;;6016789;23;20429;-77
2022/12/25 11:18:56;;;;;;;2.23;2.10;;;16.10;99.90;;;;;;5988120;23;20425;-77
2022/12/25 11:21:26;;;;;;;2.33;2.17;;;15.70;99.90;;;;;;6012756;23;20464;-77
2022/12/25 11:23:57;;;;;;;2.43;2.17;;;15.50;99.90;;;;;;6013365;23;20479;-76
2022/12/25 11:26:25;;;;;;;2.63;2.43;;;15.20;99.90;;;;;;6013296;23;20431;-77
2022/12/25 11:28:54;;;;;;;2.20;2.03;;;15.00;99.90;;;;;;6013619;23;20516;-76
2022/12/25 11:31:24;;;;;;;2.87;2.57;;;14.90;99.90;;;;;;6013782;23;20436;-77
2022/12/25 11:33:54;;;;;;;2.10;2.00;;;14.80;99.90;;;;;;5964118;23;20768;-77
2022/12/25 11:36:29;;;;;;;2.73;2.03;;;14.80;99.90;;;;;;6013223;23;20475;-76
2022/12/25 11:39:01;;;;;;;2.50;2.30;;;14.80;99.90;;;;;;6013256;23;20453;-76
2022/12/25 11:41:31;;;;;;;2.27;2.07;;;14.80;99.90;;;;;;6000827;23;20545;-76
2022/12/25 11:44:03;;;;;;;2.70;2.50;;;14.90;99.90;;;;;;5985713;24;20424;-76
2022/12/25 11:46:39;;;;;;;2.20;2.07;;;15.00;99.90;;;;;;5984538;24;20496;-76
2022/12/25 11:49:12;;;;;;;2.40;2.20;;;15.00;99.90;;;;;;5984713;24;20548;-76
2022/12/25 11:51:43;;;;;;;2.77;2.57;;;15.00;99.90;;;;;;5984881;23;20437;-76
2022/12/25 11:54:21;;;;;;;2.57;2.37;;;15.00;99.90;;;;;;5965824;24;20476;-76
2022/12/25 11:56:49;;;;;;;2.37;2.00;;;15.10;99.90;;;;;;5987319;24;20450;-78
2022/12/25 11:59:22;;;;;;;3.10;2.63;;;15.40;99.90;;;;;;5960562;24;20819;-76
2022/12/25 12:01:54;;;;;;;2.43;2.23;;;15.70;99.90;;;;;;5984991;24;20493;-77
2022/12/25 12:04:25;;;;;;;2.17;1.97;;;15.80;99.90;;;;;;5988771;24;20418;-77
2022/12/25 12:06:57;;;;;;;2.10;2.00;;;16.00;99.90;;;;;;5968491;24;20610;-77
2022/12/25 12:09:37;;;;;;;2.20;2.00;;;16.30;99.90;;;;;;5991057;24;20473;-77
2022/12/25 12:12:11;;;;;;;3.10;2.20;;;16.30;99.90;;;;;;5990318;24;20461;-77
2022/12/25 12:14:47;;;;;;;3.30;2.10;;;16.30;99.90;;;;;;5991890;23;20947;-78
2022/12/25 12:17:16;;;;;;;2.17;1.90;;;16.20;99.90;;;;;;6009552;23;20921;-78
2022/12/25 12:19:44;;;;;;;2.30;2.20;;;16.60;99.90;;;;;;6007931;23;20421;-77
2022/12/25 12:22:20;;;;;;;2.00;1.90;;;16.70;99.90;;;;;;6007950;23;20421;-77
2022/12/25 12:24:54;;;;;;;1.90;1.80;;;17.20;99.90;;;;;;6014945;23;20459;-78
2022/12/25 12:27:26;;;;;;;2.20;2.00;;;17.20;99.90;;;;;;6027143;23;20474;-77
2022/12/25 12:29:57;;;;;;;1.93;1.80;;;17.40;99.90;;;;;;6004071;23;20521;-77
2022/12/25 12:32:37;;;;;;;2.30;2.10;;;17.20;99.90;;;;;;6028352;23;20432;-77
2022/12/25 12:35:09;;;;;;;1.90;1.80;;;16.80;99.90;;;;;;6002348;23;20456;-77
2022/12/25 12:37:40;;;;;;;2.00;1.90;;;16.90;99.90;;;;;;6021506;23;20481;-77
2022/12/25 12:40:22;;;;;;;2.47;2.27;;;16.70;99.90;;;;;;5994586;23;20931;-77
2022/12/25 12:42:51;;;;;;;2.17;1.97;;;16.60;99.90;;;;;;5989162;24;20489;-77
2022/12/25 12:45:23;;;;;;;1.87;1.77;;;16.20;99.90;;;;;;5992707;24;20485;-77
2022/12/25 12:47:52;;;;;;;2.40;2.20;;;15.80;99.90;;;;;;5979441;23;20852;-77
2022/12/25 12:50:35;;;;;;;2.10;2.00;;;15.80;99.90;;;;;;6016066;23;20946;-77
2022/12/25 12:53:28;;;;;;;2.27;2.10;;;15.60;99.90;;;;;;6016279;23;20475;-77
2022/12/25 12:55:56;;;;;;;2.20;2.00;;;15.60;99.90;;;;;;6017740;23;20421;-77
2022/12/25 12:58:31;;;;;;;3.60;2.47;;;15.70;99.90;;;;;;6012166;23;20503;-77
2022/12/25 13:01:12;;;;;;;2.50;2.30;;;15.90;99.90;;;;;;6015869;23;20452;-77
2022/12/25 13:03:50;;;;;;;2.60;2.30;;;15.90;99.90;;;;;;6016407;23;20444;-77
2022/12/25 13:06:23;;;;;;;2.30;2.10;;;16.00;99.90;;;;;;6016437;23;20465;-77
2022/12/25 13:09:04;;;;;;;1.97;1.87;;;16.10;99.90;;;;;;5993060;23;20448;-77
2022/12/25 13:11:35;;;;;;;2.70;2.50;;;16.30;99.90;;;;;;6017926;23;20425;-77
2022/12/25 13:14:03;;;;;;;2.43;2.20;;;16.20;99.90;;;;;;5990934;23;20421;-77
2022/12/25 13:16:34;;;;;;;2.33;2.13;;;16.10;99.90;;;;;;6017626;23;20521;-77
2022/12/25 13:19:06;;;;;;;3.50;2.10;;;16.20;99.90;;;;;;6015132;23;20421;-77
2022/12/25 13:21:33;;;;;;;2.53;2.00;;;16.10;99.90;;;;;;6016468;23;20455;-77
2022/12/25 13:24:07;;;;;;;2.50;2.30;;;16.30;99.90;;;;;;6016376;23;20433;-77
2022/12/25 13:26:37;;;;;;;2.70;2.50;;;16.30;99.90;;;;;;6015570;23;20406;-77
2022/12/25 13:29:04;;;;;;;3.00;2.70;;;16.40;99.90;;;;;;5992119;23;20453;-77
2022/12/25 13:31:31;;;;;;;2.93;2.73;;;16.50;99.90;;;;;;6015264;23;20478;-77
2022/12/25 13:34:02;;;;;;;2.83;2.63;;;16.30;99.90;;;;;;6015273;23;20504;-77
2022/12/25 13:36:36;;;;;;;2.73;2.53;;;16.20;99.90;;;;;;5998724;23;20434;-76
2022/12/25 13:39:08;;;;;;;2.77;2.57;;;16.20;99.90;;;;;;6012749;23;20421;-77
2022/12/25 13:44:30;;;;;;;2.57;2.37;;;16.10;99.90;;;;;;5990427;23;20425;-77
2022/12/25 13:47:14;;;;;;;3.00;2.47;;;16.40;99.90;;;;;;6017125;23;20488;-77
2022/12/25 13:49:41;;;;;;;2.87;2.60;;;16.50;99.90;;;;;;5993086;23;20443;-77
2022/12/25 13:52:11;;;;;;;2.70;2.33;;;16.60;99.90;;;;;;6017466;23;20433;-77
2022/12/25 13:54:40;;;;;;;2.83;2.60;;;16.70;99.90;;;;;;6017349;23;20500;-77
2022/12/25 13:57:12;;;;;;;2.77;2.57;;;16.50;99.90;;;;;;6014706;23;20429;-77
2022/12/25 13:59:39;;;;;;;2.80;2.60;;;16.30;99.90;;;;;;5989037;23;20460;-76
2022/12/25 14:02:17;;;;;;;2.73;2.53;;;16.10;99.90;;;;;;6011157;23;20429;-76
2022/12/25 14:04:45;;;;;;;4.27;2.70;;;15.90;99.90;;;;;;5987954;23;20808;-77
2022/12/25 14:07:12;;;;;;;2.63;2.37;;;15.80;99.90;;;;;;6012632;23;20429;-77
2022/12/25 14:09:41;;;;;;;2.60;2.40;;;15.70;99.90;;;;;;6011956;23;20453;-76
2022/12/25 14:12:08;;;;;;;2.47;2.27;;;15.60;99.90;;;;;;6012454;23;20460;-76
2022/12/25 14:14:37;;;;;;;2.90;2.70;;;15.60;99.90;;;;;;5997861;23;20438;-76
2022/12/25 14:17:05;;;;;;;3.13;2.23;;;15.50;99.90;;;;;;5983445;24;20434;-76
2022/12/25 14:19:34;;;;;;;3.00;2.70;;;15.40;99.90;;;;;;5983877;24;20438;-76
2022/12/25 14:22:06;;;;;;;3.00;2.70;;;15.30;99.90;;;;;;5983845;23;20828;-76
2022/12/25 14:24:34;;;;;;;3.30;3.10;;;15.30;99.90;;;;;;5983836;24;20600;-76
2022/12/25 14:27:05;;;;;;;3.63;3.33;;;15.20;99.90;;;;;;5984008;24;20453;-76
2022/12/25 14:29:36;;;;;;;3.40;3.10;;;15.20;99.90;;;;;;5983218;23;20970;-77
2022/12/25 14:32:06;;;;;;;3.50;3.20;;;15.20;99.90;;;;;;5983257;23;20532;-76
2022/12/25 14:34:34;;;;;;;3.73;3.30;;;15.10;99.90;;;;;;6011308;23;20500;-77
2022/12/25 14:37:03;;;;;;;3.23;2.93;;;14.90;99.90;;;;;;5986102;23;20432;-76
2022/12/25 14:39:33;;;;;;;3.33;3.13;;;14.80;99.90;;;;;;5980695;23;20625;-76
2022/12/25 14:42:11;;;;;;;3.10;2.90;;;14.70;99.90;;;;;;5982135;24;20488;-76
2022/12/25 14:44:40;;;;;;;3.03;2.83;;;14.60;99.90;;;;;;5983603;24;20430;-76
2022/12/25 14:47:17;;;;;;;3.73;3.30;;;14.50;99.90;;;;;;5983790;24;20422;-76
2022/12/25 14:49:45;;;;;;;3.60;3.30;;;14.40;99.90;;;;;;5983739;24;20551;-76